Hauptseite
METAR-TAF:

METAR-TAF

Flughäfen :

Yap, Yap Island, Mikronesien

Breite: 09-29N, Länge: 138-05E, Höhe: 28 m

Beobachtung

Neuester Wetterbericht von vor 42 Minuten, um 06:50 UTC
Wind 10 kt aus Ost/Nordost
Temperatur 30°C
Luftfeuchtigkeit 70%
Luftdruck 1005 hPa
Sichtweite: 19.3 km
Leicht bewölkt in der Höhe von 1600 ft
Durchbrochene Bewölkung in der Höhe von 30000 ft

METAR: PTYA 220650Z 07010KT 12SM FEW016 BKN300 30/24 A2967 RMK SLP049 T02980244

Zeit: 17:32 (07:32 UTC)

Prognose

Neuester Wetterbericht von vor 2 Stunden und 6 Minuten, um 05:26 UTC
Gültige Prognose vom 22 um 06 UTC bis 23 um 06 UTC
Wind 9 kt aus Ost
Sichtweite: 10 km
Aufgelockert bewölkt in der Höhe von 1800 ft
Schauer in der Nähe

TAF: PTYA 220526Z 2206/2306 08009KT P6SM VCSH SCT018

Wetterbeobachtungen und Prognosen von mehr als 4000 Flughäfen (METAR und TAF Bericht).

Die verfügbaren Stationen werden durch gelbe und rote Markierungen auf der Karte dargestellt.

Führen Sie die Maus auf sie, um den Namen der Station zu sehen.

Darauf klicken, um die Beobachtung von Wetterbeobachtungen und Prognosen zu sehen.

Um die Karte zu ändern : klicken Sie auf den grünen Tasten mit einem schwarzen Kreuz Zum Vergrößern, auf den grünen Button mit einem Gedankenstrich zu verkleinern, oder auf die grünen Pfeile für benachbarte Karten.


METAR-TAF: